createdAt,value
2016-07-06T00:00:21.944Z,9.09
2016-07-06T00:00:51.951Z,8.68
2016-07-06T00:01:21.964Z,8.92
2016-07-06T00:01:51.976Z,8.83
2016-07-06T00:02:21.991Z,9.06
2016-07-06T00:02:52.011Z,9.1
2016-07-06T00:03:22.021Z,9.91
2016-07-06T00:03:52.033Z,9.19
2016-07-06T00:04:22.049Z,9.81
2016-07-06T00:04:52.058Z,9.33
2016-07-06T00:05:22.078Z,8.56
2016-07-06T00:05:52.091Z,8.77
2016-07-06T00:06:22.107Z,8.36
2016-07-06T00:06:52.121Z,9.09
2016-07-06T00:07:22.134Z,8.4
2016-07-06T00:07:52.148Z,9.11
2016-07-06T00:08:22.163Z,9.11
2016-07-06T00:08:52.175Z,9.06
2016-07-06T00:09:22.192Z,8.73
2016-07-06T00:09:52.204Z,9.35
2016-07-06T00:10:22.220Z,8.52
2016-07-06T00:10:52.233Z,9.24
2016-07-06T00:11:22.251Z,8.45
2016-07-06T00:11:52.257Z,9.11
2016-07-06T00:12:22.275Z,8.46
2016-07-06T00:12:52.289Z,8.71
2016-07-06T00:13:22.307Z,8.72
2016-07-06T00:13:52.319Z,9.01
2016-07-06T00:14:22.332Z,8.48
2016-07-06T00:14:52.346Z,8.93
2016-07-06T00:15:22.360Z,8.98
2016-07-06T00:15:52.374Z,9.78
2016-07-06T00:16:22.387Z,9.05
2016-07-06T00:16:52.402Z,8.62
2016-07-06T00:17:22.416Z,8.65
2016-07-06T00:17:52.433Z,8.47
2016-07-06T00:18:22.448Z,9.13
2016-07-06T00:18:52.461Z,8.52
2016-07-06T00:19:22.472Z,8.6
2016-07-06T00:19:52.483Z,9.07
2016-07-06T00:20:22.503Z,9.57
2016-07-06T00:20:52.518Z,8.47
2016-07-06T00:21:22.530Z,9.18
2016-07-06T00:21:52.544Z,8.47
2016-07-06T00:22:22.556Z,9.9
2016-07-06T00:22:52.568Z,8.55
2016-07-06T00:23:22.584Z,8.44
2016-07-06T00:23:52.600Z,8.47
2016-07-06T00:24:22.616Z,38.05
2016-07-06T00:24:52.626Z,46.57
2016-07-06T00:25:22.638Z,46.57
2016-07-06T00:25:52.651Z,19.92
2016-07-06T00:26:22.670Z,16.56
2016-07-06T00:26:52.681Z,24.24
2016-07-06T00:27:22.700Z,17
2016-07-06T00:27:52.710Z,22.89
2016-07-06T00:28:22.724Z,20.6
2016-07-06T00:28:52.742Z,39.35
2016-07-06T00:29:22.750Z,41.99
2016-07-06T00:29:52.770Z,9.05
2016-07-06T00:30:22.782Z,9.07
2016-07-06T00:30:52.797Z,8.6
2016-07-06T00:31:22.812Z,9.87
2016-07-06T00:31:52.825Z,9.5
2016-07-06T00:32:22.851Z,8.69
2016-07-06T00:32:52.853Z,10.06
2016-07-06T00:33:22.862Z,9.12
2016-07-06T00:33:52.883Z,9.74
2016-07-06T00:34:22.891Z,9.72
2016-07-06T00:34:52.910Z,8.83
2016-07-06T00:35:22.924Z,9.07
2016-07-06T00:35:52.939Z,9.07
2016-07-06T00:36:22.951Z,9.27
2016-07-06T00:36:52.965Z,8.55
2016-07-06T00:37:22.980Z,9.07
2016-07-06T00:37:52.995Z,8.42
2016-07-06T00:38:23.007Z,9.06
2016-07-06T00:38:53.024Z,9.04
2016-07-06T00:39:23.038Z,8.49
2016-07-06T00:39:53.046Z,8.77
2016-07-06T00:40:23.066Z,9.11
2016-07-06T00:40:53.074Z,9.05
2016-07-06T00:41:23.095Z,9.54
2016-07-06T00:41:53.107Z,9.89
2016-07-06T00:42:23.120Z,9.38
2016-07-06T00:42:53.134Z,9.61
2016-07-06T00:43:23.148Z,9.21
2016-07-06T00:43:53.163Z,8.44
2016-07-06T00:44:23.178Z,8.92
2016-07-06T00:44:53.193Z,8.43
2016-07-06T00:45:23.206Z,8.64
2016-07-06T00:45:53.220Z,8.42
2016-07-06T00:46:23.229Z,8.47
2016-07-06T00:46:53.248Z,9.3
2016-07-06T00:47:23.261Z,8.89
2016-07-06T00:47:53.276Z,9.15
2016-07-06T00:48:23.289Z,8.7
2016-07-06T00:48:53.303Z,8.77
2016-07-06T00:49:23.319Z,8.72
2016-07-06T00:49:53.334Z,8.38
2016-07-06T00:50:23.346Z,8.66
2016-07-06T00:50:53.363Z,8.59
2016-07-06T00:51:23.375Z,8.46
2016-07-06T00:51:53.394Z,8.41
2016-07-06T00:52:23.399Z,9.2
2016-07-06T00:52:53.416Z,8.74
2016-07-06T00:53:23.425Z,8.55
2016-07-06T00:53:53.442Z,8.67
2016-07-06T00:54:23.457Z,9.02
2016-07-06T00:54:53.471Z,8.55
2016-07-06T00:55:23.489Z,8.43
2016-07-06T00:55:53.500Z,8.47
2016-07-06T00:56:23.514Z,8.42
2016-07-06T00:56:53.526Z,8.78
2016-07-06T00:57:23.541Z,38.82
2016-07-06T00:57:53.555Z,46.69
2016-07-06T00:58:23.570Z,20.84
2016-07-06T00:58:53.585Z,21.24
2016-07-06T00:59:23.598Z,23.64
2016-07-06T00:59:53.609Z,21.18
2016-07-06T01:00:23.633Z,19.49
2016-07-06T01:00:53.641Z,20.48
2016-07-06T01:01:23.663Z,19.08
2016-07-06T01:01:53.669Z,47.31
2016-07-06T01:02:23.688Z,49.61
2016-07-06T01:02:53.697Z,10.14
2016-07-06T01:03:23.709Z,9.24
2016-07-06T01:03:53.724Z,8.96
2016-07-06T01:04:23.738Z,9.1
2016-07-06T01:04:53.759Z,9.4
2016-07-06T01:05:23.767Z,9.34
2016-07-06T01:05:53.779Z,9.62
2016-07-06T01:06:23.789Z,8.58
2016-07-06T01:06:53.809Z,10.02
2016-07-06T01:07:23.821Z,9.08
2016-07-06T01:07:53.833Z,10.12
2016-07-06T01:08:23.908Z,8.51
2016-07-06T01:08:53.865Z,8.66
2016-07-06T01:09:23.882Z,10.3
2016-07-06T01:09:53.898Z,8.44
2016-07-06T01:10:23.969Z,8.86
2016-07-06T01:10:53.921Z,8.61
2016-07-06T01:11:23.939Z,8.44
2016-07-06T01:11:53.948Z,8.82
2016-07-06T01:12:23.964Z,9.11
2016-07-06T01:12:53.977Z,9.22
2016-07-06T01:13:23.992Z,8.42
2016-07-06T01:13:54.008Z,9.35
2016-07-06T01:14:24.019Z,9.52
2016-07-06T01:14:54.034Z,9.69
2016-07-06T01:15:24.046Z,9.63
2016-07-06T01:15:54.061Z,9.99
2016-07-06T01:16:24.077Z,8.55
2016-07-06T01:16:54.086Z,9.43
2016-07-06T01:17:24.097Z,8.42
2016-07-06T01:17:54.118Z,9.82
2016-07-06T01:18:24.126Z,9.28
2016-07-06T01:18:54.140Z,8.49
2016-07-06T01:19:24.160Z,9.79
2016-07-06T01:19:54.169Z,9.26
2016-07-06T01:20:24.182Z,9.71
2016-07-06T01:20:54.204Z,9.25
2016-07-06T01:21:24.210Z,9.18
2016-07-06T01:21:54.234Z,9.26
2016-07-06T01:22:24.242Z,9.26
2016-07-06T01:22:54.252Z,44.33
2016-07-06T01:23:24.271Z,8.42
2016-07-06T01:23:54.286Z,8.88
2016-07-06T01:24:24.294Z,9.9
2016-07-06T01:24:54.313Z,9.08
2016-07-06T01:25:24.325Z,8.45
2016-07-06T01:25:54.336Z,8.37
2016-07-06T01:26:24.349Z,8.45
2016-07-06T01:26:54.368Z,8.81
2016-07-06T01:27:24.387Z,8.41
2016-07-06T01:27:54.392Z,8.94
2016-07-06T01:28:24.406Z,10.14
2016-07-06T01:28:54.427Z,8.56
2016-07-06T01:29:24.440Z,9.33
2016-07-06T01:29:54.453Z,8.64
2016-07-06T01:30:24.462Z,38.39
2016-07-06T01:30:54.482Z,39.18
2016-07-06T01:31:24.490Z,47.11
2016-07-06T01:31:54.506Z,20.92
2016-07-06T01:32:24.520Z,25.96
2016-07-06T01:32:54.542Z,23.86
2016-07-06T01:33:24.546Z,20.01
2016-07-06T01:33:54.561Z,23.16
2016-07-06T01:34:24.577Z,18.13
2016-07-06T01:34:54.591Z,34.07
2016-07-06T01:35:24.604Z,50.1
2016-07-06T01:35:54.620Z,50.1
2016-07-06T01:36:24.635Z,43.55
2016-07-06T01:36:54.650Z,9.45
2016-07-06T01:37:24.662Z,8.76
2016-07-06T01:37:54.679Z,9.69
2016-07-06T01:38:24.691Z,9.07
2016-07-06T01:38:54.705Z,8.58
2016-07-06T01:39:24.720Z,8.43
2016-07-06T01:39:54.732Z,8.61
2016-07-06T01:40:24.743Z,8.44
2016-07-06T01:40:54.760Z,9.62
2016-07-06T01:41:24.777Z,8.57
2016-07-06T01:41:54.790Z,8.65
2016-07-06T01:42:24.805Z,8.62
2016-07-06T01:42:54.812Z,10.02
2016-07-06T01:43:24.834Z,9.24
2016-07-06T01:43:54.846Z,8.47
2016-07-06T01:44:24.861Z,8.54
2016-07-06T01:44:54.872Z,9.12
2016-07-06T01:45:24.884Z,9.24
2016-07-06T01:45:54.903Z,8.42
2016-07-06T01:46:24.910Z,8.43
2016-07-06T01:46:54.932Z,9.08
2016-07-06T01:47:24.939Z,9.41
2016-07-06T01:47:54.955Z,9.51
2016-07-06T01:48:24.973Z,8.43
2016-07-06T01:48:54.988Z,10.05
2016-07-06T01:49:24.999Z,8.43
2016-07-06T01:49:55.016Z,8.4
2016-07-06T01:50:25.032Z,9.11
2016-07-06T01:50:55.038Z,8.77
2016-07-06T01:51:25.061Z,8.45
2016-07-06T01:51:55.073Z,8.73
2016-07-06T01:52:25.079Z,9.12
2016-07-06T01:52:55.100Z,9.11
2016-07-06T01:53:25.111Z,8.64
2016-07-06T01:53:55.122Z,8.67
2016-07-06T01:54:25.136Z,8.52
2016-07-06T01:54:55.151Z,8.4
2016-07-06T01:55:25.165Z,8.41
2016-07-06T01:55:55.179Z,9.05
2016-07-06T01:56:25.198Z,8.68
2016-07-06T01:56:55.206Z,8.75
2016-07-06T01:57:25.225Z,9.1
2016-07-06T01:57:55.236Z,9.03
2016-07-06T01:58:25.259Z,8.44
2016-07-06T01:58:55.270Z,8.41
2016-07-06T01:59:25.288Z,9.05
2016-07-06T01:59:55.297Z,8.43
2016-07-06T02:00:25.309Z,8.6
2016-07-06T02:00:55.324Z,8.96
2016-07-06T02:01:25.344Z,8.75
2016-07-06T02:01:55.352Z,8.61
2016-07-06T02:02:25.367Z,10.17
2016-07-06T02:02:55.381Z,9.46
2016-07-06T02:03:25.393Z,39.58
2016-07-06T02:03:55.408Z,47.02
2016-07-06T02:04:25.423Z,34.66
2016-07-06T02:04:55.437Z,23.17
2016-07-06T02:05:25.451Z,23.52
2016-07-06T02:05:55.468Z,22.84
2016-07-06T02:06:25.479Z,20.45
2016-07-06T02:06:55.493Z,23.2
2016-07-06T02:07:25.507Z,22.56
2016-07-06T02:07:55.520Z,46.99
2016-07-06T02:08:25.534Z,43.03
2016-07-06T02:08:55.549Z,9.08
2016-07-06T02:09:25.563Z,9.63
2016-07-06T02:09:55.572Z,9.25
2016-07-06T02:10:25.591Z,9.97
2016-07-06T02:10:55.606Z,9.06
2016-07-06T02:11:25.613Z,9.32
2016-07-06T02:11:55.633Z,8.55
2016-07-06T02:12:25.650Z,8.48
2016-07-06T02:12:55.660Z,8.86
2016-07-06T02:13:25.674Z,9.69
2016-07-06T02:13:55.689Z,9.43
2016-07-06T02:14:25.704Z,9.16
2016-07-06T02:14:55.717Z,8.51
2016-07-06T02:15:25.732Z,8.42
2016-07-06T02:15:55.747Z,9.45
2016-07-06T02:16:25.758Z,9.11
2016-07-06T02:16:55.774Z,8.51
2016-07-06T02:17:25.787Z,9.23
2016-07-06T02:17:55.804Z,8.54
2016-07-06T02:18:25.814Z,9.68
2016-07-06T02:18:55.829Z,9.51
2016-07-06T02:19:25.843Z,9.08
2016-07-06T02:19:55.859Z,9.26
2016-07-06T02:20:25.872Z,8.68
2016-07-06T02:20:55.890Z,9.13
2016-07-06T02:21:25.901Z,9.52
2016-07-06T02:21:55.919Z,9.05
2016-07-06T02:22:25.928Z,9.04
2016-07-06T02:22:55.942Z,9.07
2016-07-06T02:23:25.951Z,9.05
2016-07-06T02:23:55.969Z,9.13
2016-07-06T02:24:25.983Z,8.86
2016-07-06T02:24:55.997Z,9.74
2016-07-06T02:25:26.014Z,9.29
2016-07-06T02:25:56.027Z,9.93
2016-07-06T02:26:26.039Z,8.51
2016-07-06T02:26:56.053Z,8.6
2016-07-06T02:27:26.069Z,8.43
2016-07-06T02:27:56.080Z,8.41
2016-07-06T02:28:26.095Z,8.9
2016-07-06T02:28:56.107Z,8.54
2016-07-06T02:29:26.126Z,8.79
2016-07-06T02:29:56.139Z,9.56
2016-07-06T02:30:26.151Z,9.92
2016-07-06T02:30:56.163Z,8.59
2016-07-06T02:31:26.174Z,9.04
2016-07-06T02:31:56.195Z,8.59
2016-07-06T02:32:26.214Z,9.12
2016-07-06T02:32:56.217Z,10.38
2016-07-06T02:33:26.235Z,8.46
2016-07-06T02:33:56.250Z,8.4
2016-07-06T02:34:26.262Z,8.76
2016-07-06T02:34:56.274Z,8.41
2016-07-06T02:35:26.286Z,8.46
2016-07-06T02:35:56.306Z,8.83
2016-07-06T02:36:26.316Z,38.09
2016-07-06T02:36:56.331Z,33.62
2016-07-06T02:37:26.346Z,39.83
2016-07-06T02:37:56.361Z,20.49
2016-07-06T02:38:26.369Z,25.41
2016-07-06T02:38:56.389Z,20.42
2016-07-06T02:39:26.402Z,21.02
2016-07-06T02:39:56.419Z,20.38
2016-07-06T02:40:26.432Z,19.19
2016-07-06T02:40:56.445Z,48.27
2016-07-06T02:41:26.463Z,35.83
2016-07-06T02:41:56.474Z,10.04
2016-07-06T02:42:26.491Z,9.05
2016-07-06T02:42:56.500Z,8.43
2016-07-06T02:43:26.515Z,8.91
2016-07-06T02:43:56.530Z,9.51
2016-07-06T02:44:26.544Z,8.83
2016-07-06T02:44:56.558Z,9.01
2016-07-06T02:45:26.571Z,10.72
2016-07-06T02:45:56.582Z,9.01
2016-07-06T02:46:26.599Z,9.82
2016-07-06T02:46:56.615Z,9.39
2016-07-06T02:47:26.628Z,8.91
2016-07-06T02:47:56.637Z,8.92
2016-07-06T02:48:26.654Z,9.24
2016-07-06T02:48:56.671Z,8.41
2016-07-06T02:49:26.688Z,9.06
2016-07-06T02:49:56.695Z,9.37
2016-07-06T02:50:26.712Z,8.7
2016-07-06T02:50:56.729Z,8.41
2016-07-06T02:51:26.739Z,8.62
2016-07-06T02:51:56.753Z,9.18
2016-07-06T02:52:26.767Z,8.86
2016-07-06T02:52:56.786Z,8.86
2016-07-06T02:53:26.798Z,44.46
2016-07-06T02:53:56.811Z,8.77
2016-07-06T02:54:26.823Z,8.46
2016-07-06T02:54:56.838Z,9.35
2016-07-06T02:55:26.853Z,9.51
2016-07-06T02:55:56.866Z,9.95
2016-07-06T02:56:26.879Z,9.01
2016-07-06T02:56:56.893Z,8.34
2016-07-06T02:57:26.909Z,9.45
2016-07-06T02:57:56.922Z,8.41
2016-07-06T02:58:26.944Z,8.57
2016-07-06T02:58:56.951Z,9.2
2016-07-06T02:59:26.971Z,9.71
2016-07-06T02:59:56.978Z,9.23
2016-07-06T03:00:26.996Z,8.88
2016-07-06T03:00:57.006Z,9.15
2016-07-06T03:01:27.021Z,9.14
2016-07-06T03:01:57.036Z,8.87
2016-07-06T03:02:27.050Z,9.08
2016-07-06T03:02:57.065Z,8.5
2016-07-06T03:03:27.078Z,8.39
2016-07-06T03:03:57.091Z,8.4
2016-07-06T03:04:27.106Z,8.4
2016-07-06T03:04:57.120Z,8.43
2016-07-06T03:05:27.135Z,8.35
2016-07-06T03:05:57.151Z,9.07
2016-07-06T03:06:27.163Z,9.18
2016-07-06T03:06:57.176Z,9.71
2016-07-06T03:07:27.191Z,8.43
2016-07-06T03:07:57.207Z,8.49
2016-07-06T03:08:27.219Z,8.37
2016-07-06T03:08:57.231Z,9.47
2016-07-06T03:09:27.243Z,31.87
2016-07-06T03:09:57.256Z,33.21
2016-07-06T03:10:27.275Z,46.36
2016-07-06T03:10:57.286Z,20.39
2016-07-06T03:11:27.302Z,24.5
2016-07-06T03:11:57.316Z,16.18
2016-07-06T03:12:27.326Z,22.79
2016-07-06T03:12:57.345Z,22.98
2016-07-06T03:13:27.361Z,21.69
2016-07-06T03:13:57.367Z,33.49
2016-07-06T03:14:27.386Z,35.47
2016-07-06T03:14:57.398Z,8.9
2016-07-06T03:15:27.415Z,9.7
2016-07-06T03:15:57.427Z,9.37
2016-07-06T03:16:27.437Z,9.02
2016-07-06T03:16:57.453Z,8.6
2016-07-06T03:17:27.465Z,8.96
2016-07-06T03:17:57.480Z,9
2016-07-06T03:18:27.494Z,8.35
2016-07-06T03:18:57.511Z,8.37
2016-07-06T03:19:27.526Z,8.36
2016-07-06T03:19:57.536Z,9.61
2016-07-06T03:20:27.550Z,8.35
2016-07-06T03:20:57.569Z,9.42
2016-07-06T03:21:27.581Z,9.39
2016-07-06T03:21:57.595Z,8.98
2016-07-06T03:22:27.606Z,9.62
2016-07-06T03:22:57.621Z,9.22
2016-07-06T03:23:27.636Z,9.61
2016-07-06T03:23:57.652Z,9.43
2016-07-06T03:24:27.662Z,9.2
2016-07-06T03:24:57.677Z,8.35
2016-07-06T03:25:27.697Z,8.45
2016-07-06T03:25:57.709Z,8.33
2016-07-06T03:26:27.723Z,9.68
2016-07-06T03:26:57.738Z,8.88
2016-07-06T03:27:27.753Z,8.89
2016-07-06T03:27:57.774Z,8.98
2016-07-06T03:28:27.783Z,8.97
2016-07-06T03:28:57.794Z,8.85
2016-07-06T03:29:27.813Z,8.3
2016-07-06T03:29:57.821Z,8.51
2016-07-06T03:30:27.835Z,8.28
2016-07-06T03:30:57.851Z,8.3
2016-07-06T03:31:27.866Z,8.67
2016-07-06T03:31:57.877Z,8.3
2016-07-06T03:32:27.891Z,8.3
2016-07-06T03:32:57.907Z,9.32
2016-07-06T03:33:27.921Z,8.85
2016-07-06T03:33:57.932Z,8.49
2016-07-06T03:34:27.946Z,8.39
2016-07-06T03:34:57.960Z,8.35
2016-07-06T03:35:27.975Z,8.22
2016-07-06T03:35:57.994Z,9.1
2016-07-06T03:36:28.003Z,8.66
2016-07-06T03:36:58.012Z,8.85
2016-07-06T03:37:28.030Z,8.19
2016-07-06T03:37:58.047Z,8.91
2016-07-06T03:38:28.058Z,8.2
2016-07-06T03:38:58.074Z,9.48
2016-07-06T03:39:28.090Z,8.23
2016-07-06T03:39:58.101Z,8.76
2016-07-06T03:40:28.115Z,9.21
2016-07-06T03:40:58.130Z,8.48
2016-07-06T03:41:28.144Z,8.17
2016-07-06T03:41:58.156Z,8.27
2016-07-06T03:42:28.174Z,8.24
2016-07-06T03:42:58.185Z,47.12
2016-07-06T03:43:28.202Z,45.6
2016-07-06T03:43:58.212Z,18.17
2016-07-06T03:44:28.223Z,19.61
2016-07-06T03:44:58.236Z,22.46
2016-07-06T03:45:28.263Z,20.8
2016-07-06T03:45:58.267Z,22.12
2016-07-06T03:46:28.283Z,19.66
2016-07-06T03:46:58.298Z,46.74
2016-07-06T03:47:28.310Z,36.1
2016-07-06T03:47:58.321Z,8.73
2016-07-06T03:48:28.337Z,8.43
2016-07-06T03:48:58.353Z,8.4
2016-07-06T03:49:28.361Z,9.72
2016-07-06T03:49:58.378Z,9.87
2016-07-06T03:50:28.393Z,9.05
2016-07-06T03:50:58.406Z,9.1
2016-07-06T03:51:28.420Z,9.01
2016-07-06T03:51:58.435Z,9.02
2016-07-06T03:52:28.451Z,11.17
2016-07-06T03:52:58.462Z,12.17
2016-07-06T03:53:28.477Z,11.33
2016-07-06T03:53:58.492Z,12.63
2016-07-06T03:54:28.506Z,14.15
2016-07-06T03:54:58.521Z,22.8
2016-07-06T03:55:28.535Z,24.76
2016-07-06T03:55:58.547Z,35.02
2016-07-06T03:56:28.563Z,23.97
2016-07-06T03:56:58.576Z,19.36
2016-07-06T03:57:28.591Z,12.85
2016-07-06T03:57:58.601Z,17.58
2016-07-06T03:58:28.616Z,10.39
2016-07-06T03:58:58.630Z,12.25
2016-07-06T03:59:28.644Z,9.38
2016-07-06T03:59:58.661Z,12.95
2016-07-06T04:00:28.670Z,8.81
2016-07-06T04:00:58.689Z,8.3
2016-07-06T04:01:28.699Z,8.91
2016-07-06T04:01:58.711Z,8.88
2016-07-06T04:02:28.725Z,10.52
2016-07-06T04:02:58.743Z,10.33
2016-07-06T04:03:28.752Z,11.49
2016-07-06T04:03:58.775Z,13.25
2016-07-06T04:04:28.785Z,16.5
2016-07-06T04:04:58.804Z,15.32
2016-07-06T04:05:28.812Z,22.57
2016-07-06T04:05:58.842Z,14.8
2016-07-06T04:06:28.841Z,17.36
2016-07-06T04:06:58.849Z,13.58
2016-07-06T04:07:28.865Z,9.14
2016-07-06T04:07:58.884Z,11.76
2016-07-06T04:08:28.893Z,18.16
2016-07-06T04:08:58.911Z,24.82
2016-07-06T04:09:28.926Z,30.82
2016-07-06T04:09:58.938Z,18.31
2016-07-06T04:10:28.952Z,18.07
2016-07-06T04:10:58.964Z,21.36
2016-07-06T04:11:28.984Z,54.64
2016-07-06T04:11:58.994Z,10.43
2016-07-06T04:12:29.003Z,8.41
2016-07-06T04:12:59.023Z,8.35
2016-07-06T04:13:29.031Z,8.89
2016-07-06T04:13:59.049Z,9.19
2016-07-06T04:14:29.066Z,51.1
2016-07-06T04:14:59.075Z,10.71
2016-07-06T04:15:29.096Z,51.3
2016-07-06T04:15:59.105Z,60.38
2016-07-06T04:16:29.120Z,74.93
2016-07-06T04:16:59.129Z,31.54
2016-07-06T04:17:29.146Z,29.99
2016-07-06T04:17:59.159Z,21.11
2016-07-06T04:18:29.170Z,26.45
2016-07-06T04:18:59.191Z,36.17
2016-07-06T04:19:29.204Z,27.03
2016-07-06T04:19:59.218Z,35.9
2016-07-06T04:20:29.227Z,57.07
2016-07-06T04:20:59.243Z,16.6
2016-07-06T04:21:29.257Z,18.89
2016-07-06T04:21:59.272Z,21.11
2016-07-06T04:22:29.288Z,13.02
2016-07-06T04:22:59.302Z,10.75
2016-07-06T04:23:29.317Z,11
2016-07-06T04:23:59.329Z,10.72
2016-07-06T04:24:29.346Z,16.09
2016-07-06T04:24:59.357Z,13.47
2016-07-06T04:25:29.374Z,16.84
2016-07-06T04:25:59.384Z,12.68
2016-07-06T04:26:29.401Z,9.74
2016-07-06T04:26:59.410Z,13.05
2016-07-06T04:27:29.433Z,9.67
2016-07-06T04:27:59.439Z,10.18
2016-07-06T04:28:29.454Z,9.87
2016-07-06T04:28:59.464Z,11.33
2016-07-06T04:29:29.480Z,12.18
2016-07-06T04:29:59.490Z,12.34
2016-07-06T04:30:29.511Z,14.45
2016-07-06T04:30:59.526Z,17.63
2016-07-06T04:31:29.536Z,16.45
2016-07-06T04:31:59.553Z,16.7
2016-07-06T04:32:29.567Z,10.94
2016-07-06T04:32:59.583Z,14.89
2016-07-06T04:33:29.591Z,11.23
2016-07-06T04:33:59.609Z,9.32
2016-07-06T04:34:29.621Z,9.39
2016-07-06T04:34:59.633Z,10.13
2016-07-06T04:35:29.650Z,10.46
2016-07-06T04:35:59.669Z,8.86
2016-07-06T04:36:29.686Z,8.91
2016-07-06T04:36:59.690Z,8.73
2016-07-06T04:37:29.704Z,8.81
2016-07-06T04:37:59.721Z,9.48
2016-07-06T04:38:29.734Z,10.88
2016-07-06T04:38:59.743Z,10.14
2016-07-06T04:39:29.768Z,11
2016-07-06T04:39:59.774Z,11.21
2016-07-06T04:40:29.789Z,13.49
2016-07-06T04:40:59.804Z,18.25
2016-07-06T04:41:29.819Z,30.68
2016-07-06T04:41:59.832Z,35.75
2016-07-06T04:42:29.854Z,48.89
2016-07-06T04:42:59.860Z,8.54
2016-07-06T04:43:29.878Z,8.6
2016-07-06T04:43:59.885Z,8.56
2016-07-06T04:44:29.898Z,8.58
2016-07-06T04:44:59.913Z,8.59
2016-07-06T04:45:29.925Z,8.57
2016-07-06T04:45:59.947Z,8.38
2016-07-06T04:46:29.955Z,8.38
2016-07-06T04:46:59.969Z,9.25
2016-07-06T04:47:29.988Z,9.24
2016-07-06T04:48:00.004Z,8.56
2016-07-06T04:48:30.016Z,7.92
2016-07-06T04:49:00.029Z,44.72
2016-07-06T04:49:30.042Z,32.37
2016-07-06T04:50:00.057Z,31.42
2016-07-06T04:50:30.071Z,26
2016-07-06T04:51:00.086Z,65.12
2016-07-06T04:51:30.095Z,19.75
2016-07-06T04:52:00.115Z,23.5
2016-07-06T04:52:30.131Z,20.75
2016-07-06T04:53:00.143Z,22.16
2016-07-06T04:53:30.158Z,40.34
2016-07-06T04:54:00.173Z,36.73
2016-07-06T04:54:30.186Z,9.21
2016-07-06T04:55:00.201Z,8.76
2016-07-06T04:55:30.218Z,8.69
2016-07-06T04:56:00.226Z,9.19
2016-07-06T04:56:30.244Z,9.89
2016-07-06T04:57:00.259Z,9.88
2016-07-06T04:57:30.273Z,9.18
2016-07-06T04:58:00.288Z,8.56
2016-07-06T04:58:30.305Z,8.53
2016-07-06T04:59:00.316Z,9.18
2016-07-06T04:59:30.333Z,9.17
2016-07-06T05:00:00.345Z,9.58
2016-07-06T05:00:30.363Z,9.17
2016-07-06T05:01:00.374Z,9.17
2016-07-06T05:01:30.393Z,8.52
2016-07-06T05:02:00.400Z,9.51
2016-07-06T05:02:30.417Z,8.52
2016-07-06T05:03:00.432Z,9.13
2016-07-06T05:03:30.449Z,9.14
2016-07-06T05:04:00.461Z,9.14
2016-07-06T05:04:30.472Z,8.49
2016-07-06T05:05:00.487Z,9.16
2016-07-06T05:05:30.502Z,9.15
2016-07-06T05:06:00.520Z,8.67
2016-07-06T05:06:30.534Z,18.76
2016-07-06T05:07:00.546Z,17.89
2016-07-06T05:07:30.563Z,9.55
2016-07-06T05:08:00.577Z,8.67
2016-07-06T05:08:30.589Z,8.87
2016-07-06T05:09:00.607Z,8.78
2016-07-06T05:09:30.620Z,8.54
2016-07-06T05:10:00.636Z,8.55
2016-07-06T05:10:30.649Z,9.18
2016-07-06T05:11:00.663Z,8.69
2016-07-06T05:11:30.675Z,9.59
2016-07-06T05:12:00.696Z,9.15
2016-07-06T05:12:30.706Z,9.93
2016-07-06T05:13:00.727Z,9.98
2016-07-06T05:13:30.737Z,9.01
2016-07-06T05:14:00.753Z,8.85
2016-07-06T05:14:30.769Z,8.82
2016-07-06T05:15:00.780Z,9.58
2016-07-06T05:15:30.797Z,13.9
2016-07-06T05:16:00.814Z,9.51
2016-07-06T05:16:30.826Z,8.57
2016-07-06T05:17:00.845Z,8.54
2016-07-06T05:17:30.855Z,8.52
2016-07-06T05:18:00.874Z,8.52
2016-07-06T05:18:30.885Z,9.17
2016-07-06T05:19:00.902Z,8.53
2016-07-06T05:19:30.916Z,8.36
2016-07-06T05:20:00.931Z,8.26
2016-07-06T05:20:30.943Z,8.41
2016-07-06T05:21:00.962Z,41.96
2016-07-06T05:21:30.972Z,45.81
2016-07-06T05:22:00.989Z,23.18
2016-07-06T05:22:31.003Z,20.3
2016-07-06T05:23:01.024Z,18.83
2016-07-06T05:23:31.034Z,20.56
2016-07-06T05:24:01.052Z,20.45
2016-07-06T05:24:31.064Z,20.55
2016-07-06T05:25:01.083Z,22.3
2016-07-06T05:25:31.093Z,47.84
2016-07-06T05:26:01.110Z,47.8
2016-07-06T05:26:31.123Z,43.63
2016-07-06T05:27:01.138Z,8.68
2016-07-06T05:27:31.153Z,9.15
2016-07-06T05:28:01.167Z,8.48
2016-07-06T05:28:31.184Z,8.5
2016-07-06T05:29:01.197Z,9.16
2016-07-06T05:29:31.212Z,8.52
2016-07-06T05:30:01.227Z,9.82
2016-07-06T05:30:31.239Z,9.12
2016-07-06T05:31:01.256Z,9.7
2016-07-06T05:31:31.270Z,9.6
2016-07-06T05:32:01.285Z,9.15
2016-07-06T05:32:31.303Z,9.47
2016-07-06T05:33:01.317Z,8.48
2016-07-06T05:33:31.330Z,9.12
2016-07-06T05:34:01.345Z,8.49
2016-07-06T05:34:31.361Z,9.22
2016-07-06T05:35:01.375Z,8.98
2016-07-06T05:35:31.387Z,9.13
2016-07-06T05:36:01.405Z,9.13
2016-07-06T05:36:31.420Z,9.13
2016-07-06T05:37:01.433Z,9.12
2016-07-06T05:37:31.449Z,8.92
2016-07-06T05:38:01.462Z,8.1
2016-07-06T05:38:31.480Z,9.12
2016-07-06T05:39:01.493Z,9.13
2016-07-06T05:39:31.506Z,8.49
2016-07-06T05:40:01.522Z,8.47
2016-07-06T05:40:31.541Z,9.1
2016-07-06T05:41:01.551Z,8.49
2016-07-06T05:41:31.571Z,9.11
2016-07-06T05:42:01.582Z,9.11
2016-07-06T05:42:31.596Z,9.04
2016-07-06T05:43:01.610Z,8.97
2016-07-06T05:43:31.627Z,8.42
2016-07-06T05:44:01.642Z,8.31
2016-07-06T05:44:31.664Z,9.16
2016-07-06T05:45:01.671Z,12.86
2016-07-06T05:45:31.686Z,8.16
2016-07-06T05:46:01.701Z,11.02
2016-07-06T05:46:31.717Z,7.89
2016-07-06T05:47:01.727Z,14.32
2016-07-06T05:47:31.747Z,24.7
2016-07-06T05:48:01.759Z,8.53
2016-07-06T05:48:31.776Z,8.49
2016-07-06T05:49:01.789Z,8.41
2016-07-06T05:49:31.808Z,6.7
2016-07-06T05:50:01.815Z,9.22
2016-07-06T05:50:31.832Z,41.46
2016-07-06T05:51:01.846Z,16.5
2016-07-06T05:51:31.862Z,7.53
2016-07-06T05:52:01.877Z,7.73
2016-07-06T05:52:31.894Z,8.44
2016-07-06T05:53:01.906Z,47.91
2016-07-06T05:53:31.920Z,39.38
2016-07-06T05:54:01.935Z,18.21
2016-07-06T05:54:31.949Z,18.61
2016-07-06T05:55:01.965Z,19.34
2016-07-06T05:55:31.980Z,19.72
2016-07-06T05:56:01.996Z,40.78
2016-07-06T05:56:32.009Z,19.86
2016-07-06T05:57:02.023Z,34.18
2016-07-06T05:57:32.038Z,50.59
2016-07-06T05:58:02.052Z,9.16
2016-07-06T05:58:32.065Z,8.72
2016-07-06T05:59:02.084Z,9.84
2016-07-06T05:59:32.097Z,8.59
2016-07-06T06:00:02.109Z,9.14
2016-07-06T06:00:32.127Z,8.49
2016-07-06T06:01:02.142Z,9.1
2016-07-06T06:01:32.154Z,9.12
2016-07-06T06:02:02.171Z,9.13
2016-07-06T06:02:32.187Z,8.01
2016-07-06T06:03:02.200Z,9.56
2016-07-06T06:03:32.214Z,14.23
2016-07-06T06:04:02.226Z,17.32
2016-07-06T06:04:32.245Z,9.52
2016-07-06T06:05:02.260Z,13.27
2016-07-06T06:05:32.274Z,8.49
2016-07-06T06:06:02.288Z,8.53
2016-07-06T06:06:32.305Z,9.16
2016-07-06T06:07:02.318Z,9.15
2016-07-06T06:07:32.334Z,8.5
2016-07-06T06:08:02.348Z,8.51
2016-07-06T06:08:32.364Z,7.89
2016-07-06T06:09:02.382Z,7.68
2016-07-06T06:09:32.393Z,7.25
2016-07-06T06:10:02.413Z,16.26
2016-07-06T06:10:32.423Z,26.57
2016-07-06T06:11:02.438Z,12.29
2016-07-06T06:11:32.454Z,7.85
2016-07-06T06:12:02.467Z,8.68
2016-07-06T06:12:32.481Z,8.74
2016-07-06T06:13:02.498Z,8.47
2016-07-06T06:13:32.509Z,8.45
2016-07-06T06:14:02.524Z,8.99
2016-07-06T06:14:32.538Z,8.51
2016-07-06T06:15:02.556Z,9.16
2016-07-06T06:15:32.564Z,9.17
2016-07-06T06:16:02.588Z,8.86
2016-07-06T06:16:32.599Z,8.81
2016-07-06T06:17:02.615Z,8.51
2016-07-06T06:17:32.629Z,8.69
2016-07-06T06:18:02.644Z,8.51
2016-07-06T06:18:32.656Z,8.49
2016-07-06T06:19:02.674Z,8.49
2016-07-06T06:19:32.684Z,8.5
2016-07-06T06:20:02.705Z,8.5
2016-07-06T06:20:32.728Z,8.51
2016-07-06T06:21:02.732Z,8.5
2016-07-06T06:21:32.750Z,8.5
2016-07-06T06:22:02.763Z,8.5
2016-07-06T06:22:32.775Z,9.17
2016-07-06T06:23:02.794Z,8.48
2016-07-06T06:23:32.818Z,8.52
2016-07-06T06:24:02.822Z,8.52
2016-07-06T06:24:32.837Z,47.42
2016-07-06T06:25:02.851Z,48.02
2016-07-06T06:25:32.867Z,18.82
2016-07-06T06:26:02.881Z,23.01
2016-07-06T06:26:32.897Z,23.06
2016-07-06T06:27:02.912Z,22.95
2016-07-06T06:27:32.927Z,22.99
2016-07-06T06:28:02.941Z,19.83
2016-07-06T06:28:32.957Z,49
2016-07-06T06:29:02.974Z,50.84
2016-07-06T06:29:32.986Z,9.18
2016-07-06T06:30:03.002Z,9.2
2016-07-06T06:30:33.021Z,8.68
2016-07-06T06:31:03.030Z,9.93
2016-07-06T06:31:33.049Z,9.32
2016-07-06T06:32:03.063Z,8.59
2016-07-06T06:32:33.077Z,9.98
2016-07-06T06:33:03.095Z,9.42
2016-07-06T06:33:33.111Z,8.58
2016-07-06T06:34:03.127Z,9.44
2016-07-06T06:34:33.139Z,11.57
2016-07-06T06:35:03.155Z,9.14
2016-07-06T06:35:33.172Z,9.88
2016-07-06T06:36:03.189Z,9.22
2016-07-06T06:36:33.202Z,9.53
2016-07-06T06:37:03.220Z,9.42